AirNav   Pilot Hours Calculator
 
 1015 users online  

7IS5 Koppie Airport
Gilberts, Illinois, USA

GOING TO GILBERTS?


FAA INFORMATION EFFECTIVE 01 DECEMBER 2022

Location

FAA Identifier: 7IS5
Lat/Long: 42-07-17.0890N 088-22-41.3000W
42-07.284817N 088-22.688333W
42.1214136,-88.3781389
(estimated)
Elevation: 890 ft. / 271.3 m (surveyed)
Variation: 01W (1985)
From city: 1 mile N of GILBERTS, IL
Time zone: UTC -6 (UTC -5 during Daylight Saving Time)
Zip code: 60136

Airport Operations

Airport use: Private use. Permission required prior to landing
Activation date: 11/1985
Control tower: no
ARTCC: CHICAGO CENTER
FSS: KANKAKEE FLIGHT SERVICE STATION
Attendance: UNATNDD
Wind indicator: yes
Segmented circle: no

Airport Communications

WX ASOS at DPA (14 nm SE): PHONE 630-587-3668
WX AWOS-3 at 06C (15 nm SE): 128.275 ((847) 895-2887)
WX AWOS-3 at DKB (18 nm SW): 119.075 (815-748-2350)

Nearby radio navigation aids

VOR radial/distance  VOR name  Freq  Var
DPAr353/13.9DUPAGE VOR/DME108.4002E
OBKr254/19.9NORTHBROOK VOR/DME113.0002W
JOTr354/34.6JOLIET VOR/DME112.3002E

Airport Services

Runway Information

Runway N/S

Dimensions: 2300 x 100 ft. / 701 x 30 m
Surface: turf
RUNWAY N  RUNWAY S
Traffic pattern: leftleft

Airport Ownership and Management from official FAA records

Ownership: Privately-owned
Owner: CHAD KOPPIE
39 W 140 FREEMAN ROAD
GILBERTS, IL 60136
Phone 312-426-3883
CELL - 847-431-3882

Airport Operational Statistics

Aircraft based on the field: 2
Single engine airplanes: 2
    

Additional Remarks

ALL OPERNS TO BE CONDUCTED EAST OF ARPT.
CTLG OBSTNS: BASICALLY CLEAR.
FOR CD CTC CHICAGO APCH AT 847-289-0926.

Instrument Procedures

There are no published instrument procedures at 7IS5.

Some nearby airports with instrument procedures:

3CK - Lake in the Hills Airport (6 nm NE)
KDPA - DuPage Airport (14 nm SE)
10C - Galt Field Airport (17 nm N)
C81 - Campbell Airport (18 nm NE)
KDKB - De Kalb Taylor Municipal Airport (18 nm SW)
 
Loc | Ops | Rwys | IFR | FBO | Links
Com | Nav | Svcs | Stats | Notes
Area around 7IS5 (Koppie Airport)
 
Road maps at: MapQuest Bing Google
 
Aerial photo
No photo
 
Sectional chart

 
Airport distance calculator
Flying to Koppie Airport? Find the distance to fly.

From to 7IS5

Sunrise and sunset
Times for 07-Dec-2022
 Local
(UTC-6)
 Zulu
(UTC)
Morning civil twilight06:3812:38
Sunrise07:0913:09
Sunset16:2122:21
Evening civil twilight16:5222:52

Current date and time
Zulu (UTC)  07-Dec-2022 12:40:06
Local (UTC-6)  07-Dec-2022 06:40:06
 
METAR
KDPA 
14nm SE 
071152Z 00000KT 1/4SM R02L/1800FT FG VV002 02/02 A3017 RMK AO2 SLP222 T00220022 10039 20006 53013
K06C 
15nm SE 
071215Z AUTO 00000KT 1/4SM OVC003 02/02 A3017 RMK AO2 T00210021
KDKB 
18nm SW 
071215Z AUTO 12003KT 1/2SM FG OVC002 00/00 A3018 RMK AO2 T00040004
KPWK 
21nm E 
071152Z 32005KT 10SM OVC003 03/02 A3019 RMK AO2 SLP227 T00330022 10039 20006 53014
KORD 
21nm SE 
071216Z 29005KT 1/2SM R10L/6000VP6000FT BR OVC002 03/02 A3017 RMK AO2 SFC VIS 1 1/2 T00330017
KARR 
22nm S 
071207Z AUTO 00000KT 2 1/2SM BR FEW003 OVC017 02/01 A3018 RMK AO2 T00170011
TAF
KDPA 
14nm SE 
071120Z 0712/0812 VRB03KT 1/2SM FG OVC003 TEMPO 0712/0714 1/4SM FG VV002 FM071500 33004KT 3SM BR OVC004 FM071800 32008KT P6SM BKN010 FM072100 35006KT P6SM BKN025 FM080200 01005KT P6SM SCT010 BKN020
NOTAMs
Click for the latest NOTAMs
NOTAMs are issued by the DoD/FAA and will open in a separate window not controlled by AirNav.

 

 
 

Would you like to see your business listed on this page?

 If your business provides an interesting product or service to pilots, flight crews, aircraft, or users of the Koppie Airport, you should consider listing it here.  To start the listing process, click on the button below
 
Add a business
 

Other Pages about Koppie Airport

Update a link
 
Copyright © AirNav, LLC. All rights reserved. Privacy Policy  Contact